Terminal Aerodrome Forecast
Issued by NWS Louisville, KY

Home | Current Version | Previous Version | Text Only | Print | Product List | Glossary On
Versions: 1 2 3 4 5 6 7 8 9 10 11 12 13 14 15 16 17 18 19 20 21
153
FTUS43 KLMK 300536
TAFSDF
TAF
KSDF 300536Z 3006/3112 24004KT P6SM FEW015 SCT035 BKN150
     FM300900 20003KT 6SM BR SCT015 BKN100
      TEMPO 3010/3013 5SM BR BKN015
     FM301330 24006KT 6SM BR VCSH BKN020
     FM301600 25007KT P6SM BKN035=

USA.gov is the U.S. government's official web portal to all federal, state and local government web resources and services.